Time;durP1;ratioP1;P1;durP2;ratioP2;P2;SDS_P1;SDS_P2;PMS_P1;PMS_P2;Temp;Humidity;BMP_temperature;BMP_pressure;BME280_temperature;BME280_humidity;BME280_pressure;Samples;Min_cycle;Max_cycle;Signal;HPM_P1;HPM_P2
2021/08/18 00:05:12;;;;;;;13.43;9.37;;;;;;;;;;5052848;28;20402;-71
2021/08/18 00:07:38;;;;;;;11.37;8.07;;;;;;;;;;5052779;28;20422;-71
2021/08/18 00:10:05;;;;;;;15.40;9.20;;;;;;;;;;5052617;28;20409;-71
2021/08/18 00:12:31;;;;;;;13.50;9.67;;;;;;;;;;5052617;28;20462;-70
2021/08/18 00:14:57;;;;;;;16.00;9.50;;;;;;;;;;5052769;28;20414;-71
2021/08/18 00:17:23;;;;;;;12.03;8.00;;;;;;;;;;5052783;28;20473;-71
2021/08/18 00:19:49;;;;;;;11.60;7.97;;;;;;;;;;5052823;28;20494;-71
2021/08/18 00:22:15;;;;;;;14.60;9.30;;;;;;;;;;5052846;28;20449;-71
2021/08/18 00:24:41;;;;;;;14.20;9.20;;;;;;;;;;5052826;28;20517;-70
2021/08/18 00:27:07;;;;;;;15.00;9.10;;;;;;;;;;5052396;28;20423;-70
2021/08/18 00:29:33;;;;;;;13.07;9.00;;;;;;;;;;5052754;28;20411;-71
2021/08/18 00:35:03;;;;;;;14.00;9.53;;;;;;;;;;5052111;28;20465;-71
2021/08/18 00:37:29;;;;;;;17.57;9.80;;;;;;;;;;5052576;28;20412;-71
2021/08/18 00:39:55;;;;;;;14.93;9.37;;;;;;;;;;5052408;28;20515;-71
2021/08/18 00:42:21;;;;;;;12.30;7.77;;;;;;;;;;5052504;28;20834;-71
2021/08/18 00:44:47;;;;;;;14.30;8.47;;;;;;;;;;5052246;28;20450;-71
2021/08/18 00:50:18;;;;;;;14.20;8.43;;;;;;;;;;5052436;28;20464;-71
2021/08/18 00:52:45;;;;;;;13.37;9.23;;;;;;;;;;5052392;28;20558;-71
2021/08/18 00:55:11;;;;;;;14.30;8.97;;;;;;;;;;5052212;28;20472;-71
2021/08/18 00:57:38;;;;;;;14.10;9.63;;;;;;;;;;5056031;28;20461;-71
2021/08/18 01:00:06;;;;;;;14.97;9.50;;;;;;;;;;5056461;28;20783;-71
2021/08/18 01:02:34;;;;;;;17.50;10.97;;;;;;;;;;5056557;28;20403;-71
2021/08/18 01:05:00;;;;;;;17.23;11.07;;;;;;;;;;5056062;28;20458;-71
2021/08/18 01:07:26;;;;;;;15.43;10.00;;;;;;;;;;5056223;28;20505;-72
2021/08/18 01:09:52;;;;;;;15.87;10.70;;;;;;;;;;5056300;28;20407;-71
2021/08/18 01:12:18;;;;;;;16.40;10.13;;;;;;;;;;5055875;28;20474;-72
2021/08/18 01:14:44;;;;;;;20.37;9.27;;;;;;;;;;5055980;28;20531;-71
2021/08/18 01:20:15;;;;;;;14.13;10.07;;;;;;;;;;5055808;28;20453;-71
2021/08/18 01:22:42;;;;;;;11.30;9.20;;;;;;;;;;5055712;28;20415;-72
2021/08/18 01:25:09;;;;;;;12.63;9.27;;;;;;;;;;5055783;28;20426;-72
2021/08/18 01:27:36;;;;;;;15.23;10.50;;;;;;;;;;5055556;28;20835;-71
2021/08/18 01:30:02;;;;;;;13.87;10.40;;;;;;;;;;5055647;28;20402;-71
2021/08/18 01:35:33;;;;;;;18.00;10.33;;;;;;;;;;5055384;28;20473;-71
2021/08/18 01:38:00;;;;;;;16.03;10.00;;;;;;;;;;5055751;28;20450;-71
2021/08/18 01:40:26;;;;;;;19.20;10.30;;;;;;;;;;5055281;28;20403;-71
2021/08/18 01:42:53;;;;;;;19.60;10.17;;;;;;;;;;5055447;28;20429;-71
2021/08/18 01:45:29;;;;;;;18.73;11.83;;;;;;;;;;5055476;28;20760;-71
2021/08/18 01:47:55;;;;;;;15.03;9.97;;;;;;;;;;5055471;28;20728;-72
2021/08/18 01:50:22;;;;;;;16.23;9.90;;;;;;;;;;5055317;28;20410;-71
2021/08/18 01:52:51;;;;;;;15.17;10.70;;;;;;;;;;5055232;28;20458;-71
2021/08/18 01:55:18;;;;;;;14.33;9.60;;;;;;;;;;5055110;28;20924;-71
2021/08/18 01:57:44;;;;;;;17.50;11.00;;;;;;;;;;5055057;28;20785;-72
2021/08/18 02:05:59;;;;;;;13.40;9.60;;;;;;;;;;5055043;28;20458;-72
2021/08/18 02:08:25;;;;;;;14.93;10.20;;;;;;;;;;5053637;28;20415;-72
2021/08/18 02:10:51;;;;;;;16.33;10.90;;;;;;;;;;5054760;28;20407;-72
2021/08/18 02:13:17;;;;;;;17.87;11.10;;;;;;;;;;5054847;28;20474;-72
2021/08/18 02:15:43;;;;;;;17.90;10.73;;;;;;;;;;5055004;28;20406;-72
2021/08/18 02:18:10;;;;;;;17.30;10.40;;;;;;;;;;5055079;28;20411;-72
2021/08/18 02:20:37;;;;;;;14.20;10.20;;;;;;;;;;5054755;28;20521;-72
2021/08/18 02:23:03;;;;;;;18.50;10.97;;;;;;;;;;5054709;28;20443;-72
2021/08/18 02:25:30;;;;;;;15.03;9.70;;;;;;;;;;5054414;28;20416;-72
2021/08/18 02:27:56;;;;;;;14.00;9.43;;;;;;;;;;5054643;28;20415;-72
2021/08/18 02:30:23;;;;;;;17.20;11.00;;;;;;;;;;5054816;28;20510;-72
2021/08/18 02:32:50;;;;;;;15.87;10.90;;;;;;;;;;5054454;28;20477;-72
2021/08/18 02:35:16;;;;;;;18.10;10.87;;;;;;;;;;5054177;28;20467;-72
2021/08/18 02:37:42;;;;;;;18.30;11.70;;;;;;;;;;5053832;28;20423;-72
2021/08/18 02:40:09;;;;;;;17.03;10.50;;;;;;;;;;5054048;28;20893;-70
2021/08/18 02:42:35;;;;;;;15.13;10.10;;;;;;;;;;5054273;28;20422;-70
2021/08/18 02:45:01;;;;;;;13.10;10.17;;;;;;;;;;5054077;28;20740;-72
2021/08/18 02:50:32;;;;;;;18.07;9.67;;;;;;;;;;5054077;28;20414;-71
2021/08/18 02:52:58;;;;;;;16.67;9.67;;;;;;;;;;5054304;28;20561;-69
2021/08/18 02:55:24;;;;;;;17.57;10.30;;;;;;;;;;5054230;28;20545;-71
2021/08/18 02:57:50;;;;;;;18.00;10.40;;;;;;;;;;5054146;28;20769;-71
2021/08/18 03:00:17;;;;;;;16.83;11.17;;;;;;;;;;5054006;28;20411;-71
2021/08/18 03:05:46;;;;;;;15.00;9.90;;;;;;;;;;5053724;28;20418;-72
2021/08/18 03:08:12;;;;;;;15.90;10.30;;;;;;;;;;5053793;28;20427;-72
2021/08/18 03:10:38;;;;;;;14.73;9.60;;;;;;;;;;5053755;28;20502;-71
2021/08/18 03:13:04;;;;;;;13.40;9.70;;;;;;;;;;5053915;28;20562;-72
2021/08/18 03:15:30;;;;;;;17.83;10.30;;;;;;;;;;5053975;28;20411;-72
2021/08/18 03:17:56;;;;;;;15.03;9.90;;;;;;;;;;5053590;28;20407;-72
2021/08/18 03:20:23;;;;;;;13.50;9.53;;;;;;;;;;5053443;28;20498;-71
2021/08/18 03:22:48;;;;;;;12.70;9.10;;;;;;;;;;5053550;28;20481;-71
2021/08/18 03:25:15;;;;;;;18.83;9.97;;;;;;;;;;5053653;28;20862;-71
2021/08/18 03:27:41;;;;;;;14.20;10.20;;;;;;;;;;5053403;28;20407;-71
2021/08/18 03:30:08;;;;;;;15.93;9.40;;;;;;;;;;5053374;28;20445;-71
2021/08/18 03:35:38;;;;;;;13.10;9.70;;;;;;;;;;5052950;28;20485;-71
2021/08/18 03:38:04;;;;;;;13.07;9.13;;;;;;;;;;5053437;28;20482;-70
2021/08/18 03:40:29;;;;;;;14.77;9.20;;;;;;;;;;5053095;28;20447;-72
2021/08/18 03:42:55;;;;;;;12.73;8.30;;;;;;;;;;5053142;28;20426;-72
2021/08/18 03:45:21;;;;;;;13.30;8.77;;;;;;;;;;5053076;28;20465;-72
2021/08/18 03:50:51;;;;;;;10.40;8.33;;;;;;;;;;5053038;28;20887;-71
2021/08/18 03:53:17;;;;;;;11.93;8.30;;;;;;;;;;5052973;28;20474;-70
2021/08/18 03:55:43;;;;;;;15.50;8.57;;;;;;;;;;5052896;28;20403;-71
2021/08/18 03:58:09;;;;;;;15.17;9.60;;;;;;;;;;5052738;28;20415;-70
2021/08/18 04:00:36;;;;;;;13.70;9.10;;;;;;;;;;5053169;28;20411;-70
2021/08/18 04:03:02;;;;;;;15.33;9.10;;;;;;;;;;5052853;28;20418;-71
2021/08/18 04:05:29;;;;;;;11.70;7.37;;;;;;;;;;5052638;28;20769;-70
2021/08/18 04:07:55;;;;;;;14.93;9.00;;;;;;;;;;5052928;28;20773;-70
2021/08/18 04:10:21;;;;;;;13.17;8.50;;;;;;;;;;5052705;28;20400;-71
2021/08/18 04:12:54;;;;;;;10.73;8.30;;;;;;;;;;5053004;28;20469;-71
2021/08/18 04:15:21;;;;;;;13.30;9.03;;;;;;;;;;5052832;28;20411;-71
2021/08/18 04:20:51;;;;;;;10.80;8.27;;;;;;;;;;5052804;28;20414;-71
2021/08/18 04:23:17;;;;;;;19.03;8.73;;;;;;;;;;5052919;28;20418;-71
2021/08/18 04:25:43;;;;;;;15.50;10.37;;;;;;;;;;5052660;28;20572;-71
2021/08/18 04:28:09;;;;;;;12.00;9.27;;;;;;;;;;5052905;28;20414;-72
2021/08/18 04:36:23;;;;;;;13.00;9.37;;;;;;;;;;5055972;28;20477;-71
2021/08/18 04:38:49;;;;;;;13.67;9.23;;;;;;;;;;5055522;28;20533;-71
2021/08/18 04:41:15;;;;;;;14.37;8.73;;;;;;;;;;5054689;28;20431;-71
2021/08/18 04:43:41;;;;;;;12.30;9.10;;;;;;;;;;5056169;28;20419;-71
2021/08/18 04:46:07;;;;;;;13.33;9.13;;;;;;;;;;5055791;28;20779;-71
2021/08/18 04:48:33;;;;;;;14.33;8.83;;;;;;;;;;5056520;28;20535;-72
2021/08/18 04:51:01;;;;;;;12.40;9.30;;;;;;;;;;5056226;28;20481;-71
2021/08/18 04:53:27;;;;;;;12.53;9.17;;;;;;;;;;5056314;28;20876;-71
2021/08/18 04:55:53;;;;;;;12.90;9.07;;;;;;;;;;5054554;28;20443;-72
2021/08/18 04:58:19;;;;;;;13.53;8.87;;;;;;;;;;5052953;28;20419;-71
2021/08/18 05:00:45;;;;;;;10.93;8.30;;;;;;;;;;5056163;28;20426;-72
2021/08/18 05:06:15;;;;;;;10.23;7.47;;;;;;;;;;5055943;28;20916;-72
2021/08/18 05:08:41;;;;;;;11.33;8.77;;;;;;;;;;5056308;28;20478;-71
2021/08/18 05:11:06;;;;;;;12.10;7.97;;;;;;;;;;5056077;28;20913;-71
2021/08/18 05:13:32;;;;;;;15.97;9.30;;;;;;;;;;5055884;28;20469;-71
2021/08/18 05:15:58;;;;;;;10.20;7.17;;;;;;;;;;5055828;28;20415;-72
2021/08/18 05:18:24;;;;;;;12.87;8.73;;;;;;;;;;5055883;28;20419;-71
2021/08/18 05:20:50;;;;;;;12.80;7.80;;;;;;;;;;5055827;28;20974;-71
2021/08/18 05:23:16;;;;;;;11.13;7.30;;;;;;;;;;5055369;28;20754;-70
2021/08/18 05:25:42;;;;;;;13.10;8.33;;;;;;;;;;5055795;28;20778;-71
2021/08/18 05:28:13;;;;;;;9.07;6.83;;;;;;;;;;5055653;28;20425;-71
2021/08/18 05:30:39;;;;;;;11.90;8.10;;;;;;;;;;5055036;28;20411;-71
2021/08/18 05:36:08;;;;;;;10.67;8.53;;;;;;;;;;5055321;28;21002;-71
2021/08/18 05:38:34;;;;;;;10.00;7.00;;;;;;;;;;5055449;28;20411;-70
2021/08/18 05:41:00;;;;;;;13.63;8.90;;;;;;;;;;5055496;28;20421;-70
2021/08/18 05:43:26;;;;;;;11.23;8.13;;;;;;;;;;5055264;28;20498;-71
2021/08/18 05:45:52;;;;;;;15.27;8.60;;;;;;;;;;5055277;28;20434;-71
2021/08/18 05:51:22;;;;;;;11.07;7.63;;;;;;;;;;5055201;28;20520;-72
2021/08/18 05:53:50;;;;;;;12.33;8.40;;;;;;;;;;5054020;28;20501;-72
2021/08/18 05:56:17;;;;;;;14.10;8.67;;;;;;;;;;5054878;28;20411;-70
2021/08/18 05:58:43;;;;;;;11.30;7.47;;;;;;;;;;5054967;28;20419;-70
2021/08/18 06:01:09;;;;;;;12.90;8.67;;;;;;;;;;5055847;28;20415;-71
2021/08/18 06:03:35;;;;;;;11.03;7.03;;;;;;;;;;5057222;28;20901;-70
2021/08/18 06:06:01;;;;;;;11.17;8.93;;;;;;;;;;5055177;28;20728;-72
2021/08/18 06:08:27;;;;;;;9.67;7.97;;;;;;;;;;5054565;28;20445;-71
2021/08/18 06:10:53;;;;;;;9.57;8.07;;;;;;;;;;5054603;28;20418;-71
2021/08/18 06:13:19;;;;;;;13.90;8.17;;;;;;;;;;5053789;28;20524;-72
2021/08/18 06:15:45;;;;;;;13.20;7.53;;;;;;;;;;5054286;28;20594;-71
2021/08/18 06:21:15;;;;;;;15.40;7.97;;;;;;;;;;5054041;28;20478;-70
2021/08/18 06:23:41;;;;;;;10.90;7.40;;;;;;;;;;5054076;28;20418;-71
2021/08/18 06:26:07;;;;;;;11.27;7.27;;;;;;;;;;5054043;28;20415;-71
2021/08/18 06:28:34;;;;;;;10.53;7.60;;;;;;;;;;5054474;28;20418;-71
2021/08/18 06:31:00;;;;;;;10.63;8.17;;;;;;;;;;5054327;28;20493;-71
2021/08/18 06:36:30;;;;;;;12.87;7.97;;;;;;;;;;5054201;28;20540;-71
2021/08/18 06:38:56;;;;;;;9.70;7.53;;;;;;;;;;5054669;28;20422;-71
2021/08/18 06:41:22;;;;;;;8.70;6.97;;;;;;;;;;5054192;28;20415;-71
2021/08/18 06:43:48;;;;;;;10.57;7.00;;;;;;;;;;5054289;28;20422;-71
2021/08/18 06:46:14;;;;;;;11.30;7.03;;;;;;;;;;5054145;28;20422;-71
2021/08/18 06:51:43;;;;;;;9.90;7.10;;;;;;;;;;5053936;28;20468;-71
2021/08/18 06:54:09;;;;;;;10.30;6.90;;;;;;;;;;5053639;28;20944;-71
2021/08/18 06:56:35;;;;;;;9.93;6.40;;;;;;;;;;5052038;28;20409;-71
2021/08/18 06:59:01;;;;;;;12.10;7.80;;;;;;;;;;5052911;28;20498;-71
2021/08/18 07:01:27;;;;;;;10.60;6.30;;;;;;;;;;5052839;28;20414;-71
2021/08/18 07:03:53;;;;;;;10.93;7.67;;;;;;;;;;5053042;28;20419;-71
2021/08/18 07:06:19;;;;;;;7.53;6.30;;;;;;;;;;5052665;28;20484;-71
2021/08/18 07:08:45;;;;;;;9.20;7.03;;;;;;;;;;5052738;28;20565;-72
2021/08/18 07:11:12;;;;;;;7.30;6.40;;;;;;;;;;5052684;28;20403;-71
2021/08/18 07:13:38;;;;;;;12.97;6.87;;;;;;;;;;5052423;28;20515;-71
2021/08/18 07:16:05;;;;;;;7.57;5.63;;;;;;;;;;5052233;28;20402;-71
2021/08/18 07:21:34;;;;;;;8.00;6.30;;;;;;;;;;5052331;28;20502;-71
2021/08/18 07:24:00;;;;;;;9.20;6.03;;;;;;;;;;5052255;28;20407;-71
2021/08/18 07:26:27;;;;;;;5.90;5.30;;;;;;;;;;5052001;28;20418;-71
2021/08/18 07:28:57;;;;;;;7.20;5.67;;;;;;;;;;5052241;28;20403;-71
2021/08/18 07:31:24;;;;;;;11.23;5.40;;;;;;;;;;5052431;28;20485;-71
2021/08/18 07:36:53;;;;;;;7.03;4.93;;;;;;;;;;5052112;28;20442;-71
2021/08/18 07:39:19;;;;;;;5.80;4.93;;;;;;;;;;5052204;28;20882;-72
2021/08/18 07:41:45;;;;;;;5.97;4.50;;;;;;;;;;5051941;28;20501;-72
2021/08/18 07:44:11;;;;;;;5.77;4.20;;;;;;;;;;5051985;28;20403;-72
2021/08/18 07:46:37;;;;;;;4.50;3.90;;;;;;;;;;5051900;28;20896;-73
2021/08/18 07:52:07;;;;;;;5.80;4.50;;;;;;;;;;5051759;28;20475;-72
2021/08/18 07:54:33;;;;;;;8.07;4.53;;;;;;;;;;5050670;28;20431;-72
2021/08/18 07:56:59;;;;;;;6.00;4.10;;;;;;;;;;5052882;28;20415;-72
2021/08/18 07:59:25;;;;;;;8.23;4.50;;;;;;;;;;5054673;28;20925;-72
2021/08/18 08:01:51;;;;;;;5.87;3.57;;;;;;;;;;5052204;28;20415;-72
2021/08/18 08:04:17;;;;;;;5.53;3.70;;;;;;;;;;5051809;28;20423;-72
2021/08/18 08:06:44;;;;;;;5.17;3.50;;;;;;;;;;5050829;28;20881;-71
2021/08/18 08:09:10;;;;;;;5.03;4.17;;;;;;;;;;5051490;28;20471;-71
2021/08/18 08:11:36;;;;;;;8.23;3.90;;;;;;;;;;5051545;28;20419;-71
2021/08/18 08:14:03;;;;;;;4.17;3.30;;;;;;;;;;5050529;28;20481;-71
2021/08/18 08:16:30;;;;;;;3.93;3.23;;;;;;;;;;5051669;28;20399;-71
2021/08/18 08:21:59;;;;;;;3.70;3.00;;;;;;;;;;5051353;28;20488;-72
2021/08/18 08:24:26;;;;;;;7.90;3.80;;;;;;;;;;5051370;28;20403;-72
2021/08/18 08:26:52;;;;;;;4.73;3.00;;;;;;;;;;5051335;28;20468;-71
2021/08/18 08:29:18;;;;;;;3.97;3.57;;;;;;;;;;5051397;28;20506;-71
2021/08/18 08:31:44;;;;;;;3.67;2.70;;;;;;;;;;5051375;28;20447;-71
2021/08/18 08:34:10;;;;;;;2.63;2.37;;;;;;;;;;5051197;28;20501;-71
2021/08/18 08:36:36;;;;;;;3.10;2.50;;;;;;;;;;5051232;28;20863;-71
2021/08/18 08:39:03;;;;;;;4.80;3.03;;;;;;;;;;5051657;28;20510;-71
2021/08/18 08:41:29;;;;;;;2.73;2.50;;;;;;;;;;5051443;28;20419;-71
2021/08/18 08:43:56;;;;;;;2.30;2.10;;;;;;;;;;5051312;28;20413;-72
2021/08/18 08:46:22;;;;;;;4.83;2.80;;;;;;;;;;5051185;28;20403;-71
2021/08/18 08:51:53;;;;;;;2.87;1.87;;;;;;;;;;5051138;28;20409;-71
2021/08/18 08:54:19;;;;;;;3.40;2.23;;;;;;;;;;5051442;28;20437;-72
2021/08/18 08:56:46;;;;;;;5.53;4.50;;;;;;;;;;5050943;28;20407;-72
2021/08/18 08:59:12;;;;;;;3.70;2.33;;;;;;;;;;5051162;28;20450;-71
2021/08/18 09:01:56;;;;;;;2.10;1.57;;;;;;;;;;5051111;28;20510;-71
2021/08/18 09:07:25;;;;;;;1.60;1.10;;;;;;;;;;5051113;28;20430;-71
2021/08/18 09:10:03;;;;;;;1.83;0.90;;;;;;;;;;5051190;28;20411;-70
2021/08/18 09:12:34;;;;;;;1.30;1.20;;;;;;;;;;5050897;28;20983;-71
2021/08/18 09:15:22;;;;;;;1.47;0.93;;;;;;;;;;5051150;28;20423;-71
2021/08/18 09:17:49;;;;;;;1.03;0.90;;;;;;;;;;5052973;28;20446;-71
2021/08/18 09:20:19;;;;;;;0.97;0.87;;;;;;;;;;5054685;28;20401;-72
2021/08/18 09:22:49;;;;;;;1.33;0.90;;;;;;;;;;5057348;28;20966;-81
2021/08/18 09:25:16;;;;;;;1.50;1.20;;;;;;;;;;5054776;28;20433;-81
2021/08/18 09:27:43;;;;;;;0.90;0.90;;;;;;;;;;5054717;28;20505;-80
2021/08/18 09:30:17;;;;;;;1.50;1.00;;;;;;;;;;5054350;28;20443;-79
2021/08/18 09:32:43;;;;;;;1.40;1.10;;;;;;;;;;5054691;28;20548;-81
2021/08/18 09:35:11;;;;;;;1.60;1.30;;;;;;;;;;5054259;28;20975;-80
2021/08/18 09:37:38;;;;;;;2.40;1.87;;;;;;;;;;5054697;28;20518;-82
2021/08/18 09:40:30;;;;;;;2.50;1.17;;;;;;;;;;5054731;28;20811;-83
2021/08/18 09:43:16;;;;;;;1.53;1.30;;;;;;;;;;5052395;28;20500;-83
2021/08/18 09:45:48;;;;;;;2.10;0.70;;;;;;;;;;5055081;28;20434;-84
2021/08/18 09:48:16;;;;;;;1.33;1.17;;;;;;;;;;5054778;28;20901;-82
2021/08/18 09:51:08;;;;;;;0.60;0.60;;;;;;;;;;5054890;28;20805;-81
2021/08/18 09:53:35;;;;;;;0.70;0.70;;;;;;;;;;5052517;28;20474;-82
2021/08/18 09:56:03;;;;;;;1.10;0.83;;;;;;;;;;5054151;28;20492;-79
2021/08/18 09:58:36;;;;;;;1.27;0.90;;;;;;;;;;5054329;28;20740;-82
2021/08/18 10:01:08;;;;;;;3.90;0.80;;;;;;;;;;5052868;28;20801;-82
2021/08/18 10:03:35;;;;;;;1.50;0.60;;;;;;;;;;5055278;28;20426;-82
2021/08/18 10:06:01;;;;;;;0.70;0.70;;;;;;;;;;5055175;28;20492;-84
2021/08/18 10:08:28;;;;;;;0.50;0.50;;;;;;;;;;5069057;28;20415;-82
2021/08/18 10:10:54;;;;;;;0.57;0.53;;;;;;;;;;5059459;28;20423;-81
2021/08/18 10:13:21;;;;;;;0.70;0.70;;;;;;;;;;5055227;28;20553;-82
2021/08/18 10:15:47;;;;;;;0.70;0.40;;;;;;;;;;5057576;28;20808;-80
2021/08/18 10:18:22;;;;;;;0.80;0.73;;;;;;;;;;5054264;28;20407;-81
2021/08/18 10:20:48;;;;;;;0.80;0.57;;;;;;;;;;5053988;28;20423;-81
2021/08/18 10:23:14;;;;;;;0.70;0.60;;;;;;;;;;5053863;28;20403;-82
2021/08/18 10:25:47;;;;;;;0.50;0.50;;;;;;;;;;5053786;28;20419;-83
2021/08/18 10:28:16;;;;;;;0.90;0.80;;;;;;;;;;5053473;28;20498;-83
2021/08/18 10:30:48;;;;;;;1.23;0.83;;;;;;;;;;5054075;28;20457;-83
2021/08/18 10:33:34;;;;;;;0.80;0.80;;;;;;;;;;5053864;28;20980;-83
2021/08/18 10:36:00;;;;;;;1.00;0.53;;;;;;;;;;5022328;28;21021;-82
2021/08/18 10:38:26;;;;;;;0.50;0.50;;;;;;;;;;5053418;28;20510;-81
2021/08/18 10:40:53;;;;;;;0.90;0.70;;;;;;;;;;5053326;28;20410;-80
2021/08/18 10:43:38;;;;;;;0.63;0.50;;;;;;;;;;5052483;28;20438;-81
2021/08/18 10:46:04;;;;;;;0.80;0.60;;;;;;;;;;5053377;28;20502;-78
2021/08/18 10:48:48;;;;;;;0.73;0.73;;;;;;;;;;5053408;28;20520;-81
2021/08/18 10:51:34;;;;;;;0.73;0.73;;;;;;;;;;5053081;28;20439;-80
2021/08/18 10:54:20;;;;;;;0.70;0.53;;;;;;;;;;5051827;28;20494;-80
2021/08/18 10:56:46;;;;;;;0.73;0.70;;;;;;;;;;5052583;28;20529;-81
2021/08/18 10:59:41;;;;;;;0.90;0.60;;;;;;;;;;5052964;28;20588;-80
2021/08/18 11:02:30;;;;;;;1.40;0.80;;;;;;;;;;5043781;28;20437;-81
2021/08/18 11:04:56;;;;;;;0.80;0.67;;;;;;;;;;5053044;28;20932;-82
2021/08/18 11:07:22;;;;;;;1.73;0.77;;;;;;;;;;5052842;28;20403;-79
2021/08/18 11:09:50;;;;;;;0.50;0.37;;;;;;;;;;5053138;28;20429;-80
2021/08/18 11:12:35;;;;;;;0.70;0.50;;;;;;;;;;5051356;28;20481;-81
2021/08/18 11:15:01;;;;;;;0.60;0.60;;;;;;;;;;5052721;28;20404;-83
2021/08/18 11:17:27;;;;;;;0.50;0.40;;;;;;;;;;5052466;28;20411;-83
2021/08/18 11:19:54;;;;;;;1.37;0.50;;;;;;;;;;5052531;28;20434;-84
2021/08/18 11:22:20;;;;;;;0.80;0.70;;;;;;;;;;5052559;28;20414;-80
2021/08/18 11:24:46;;;;;;;0.50;0.40;;;;;;;;;;5052587;28;20498;-79
2021/08/18 11:27:17;;;;;;;0.90;0.80;;;;;;;;;;5052241;28;20410;-80
2021/08/18 11:29:43;;;;;;;0.70;0.70;;;;;;;;;;5052385;28;20411;-77
2021/08/18 11:32:09;;;;;;;0.97;0.60;;;;;;;;;;5052404;28;20429;-78
2021/08/18 11:34:37;;;;;;;1.50;0.50;;;;;;;;;;5050776;28;20881;-81
2021/08/18 11:37:05;;;;;;;0.67;0.67;;;;;;;;;;5055566;28;20698;-80
2021/08/18 11:39:34;;;;;;;0.80;0.30;;;;;;;;;;5054654;28;20462;-79
2021/08/18 11:42:00;;;;;;;0.50;0.50;;;;;;;;;;5052034;28;20411;-74
2021/08/18 11:44:28;;;;;;;1.50;0.43;;;;;;;;;;5052052;28;20553;-73
2021/08/18 11:46:55;;;;;;;0.60;0.57;;;;;;;;;;5052148;28;20521;-74
2021/08/18 11:49:24;;;;;;;0.70;0.70;;;;;;;;;;5052317;28;20758;-74
2021/08/18 11:51:50;;;;;;;1.73;0.83;;;;;;;;;;5052039;28;20419;-75
2021/08/18 11:54:16;;;;;;;0.90;0.90;;;;;;;;;;5051864;28;20549;-75
2021/08/18 11:56:42;;;;;;;1.37;1.07;;;;;;;;;;5051608;28;20454;-74
2021/08/18 11:59:08;;;;;;;1.30;0.90;;;;;;;;;;5051842;28;20451;-74
2021/08/18 12:01:34;;;;;;;0.60;0.60;;;;;;;;;;5051805;28;20419;-75
2021/08/18 12:04:01;;;;;;;0.73;0.67;;;;;;;;;;5052040;28;20430;-75
2021/08/18 12:06:31;;;;;;;0.77;0.70;;;;;;;;;;5051713;28;20909;-71
2021/08/18 12:08:57;;;;;;;0.93;0.77;;;;;;;;;;5051678;28;20941;-71
2021/08/18 12:11:40;;;;;;;3.53;1.00;;;;;;;;;;5051551;28;20433;-71
2021/08/18 12:14:10;;;;;;;0.80;0.77;;;;;;;;;;5051756;28;20466;-72
2021/08/18 12:16:36;;;;;;;1.23;0.90;;;;;;;;;;5051829;28;20419;-71
2021/08/18 12:19:19;;;;;;;0.73;0.67;;;;;;;;;;5050176;28;20446;-71
2021/08/18 12:21:46;;;;;;;1.60;0.90;;;;;;;;;;5051491;28;20419;-71
2021/08/18 12:24:16;;;;;;;1.40;1.10;;;;;;;;;;5052012;28;20415;-72
2021/08/18 12:26:46;;;;;;;1.30;1.20;;;;;;;;;;5053662;28;20885;-71
2021/08/18 12:29:16;;;;;;;2.33;0.80;;;;;;;;;;5050358;28;20470;-72
2021/08/18 12:32:01;;;;;;;1.30;1.20;;;;;;;;;;5051411;28;20422;-71
2021/08/18 12:34:42;;;;;;;0.67;0.63;;;;;;;;;;5049918;28;20929;-70
2021/08/18 12:37:18;;;;;;;1.10;0.73;;;;;;;;;;5051405;28;20522;-71
2021/08/18 12:39:45;;;;;;;1.43;1.07;;;;;;;;;;5051642;28;20422;-70
2021/08/18 12:42:21;;;;;;;0.97;0.77;;;;;;;;;;5051391;28;20458;-71
2021/08/18 12:44:57;;;;;;;1.90;0.77;;;;;;;;;;5049987;28;20437;-72
2021/08/18 12:47:29;;;;;;;1.07;0.73;;;;;;;;;;5051394;28;20727;-71
2021/08/18 12:49:55;;;;;;;1.23;0.80;;;;;;;;;;5051336;28;20791;-72
2021/08/18 12:52:22;;;;;;;0.77;0.70;;;;;;;;;;5052854;28;20533;-71
2021/08/18 12:54:48;;;;;;;1.40;0.70;;;;;;;;;;5055540;28;20761;-70
2021/08/18 12:57:14;;;;;;;0.97;0.67;;;;;;;;;;5054898;28;20411;-70
2021/08/18 12:59:40;;;;;;;0.67;0.60;;;;;;;;;;5052402;28;21057;-71
2021/08/18 13:02:07;;;;;;;0.50;0.47;;;;;;;;;;5054913;28;20414;-71
2021/08/18 13:04:33;;;;;;;0.60;0.50;;;;;;;;;;5053716;28;20426;-71
2021/08/18 13:07:00;;;;;;;0.50;0.40;;;;;;;;;;5053871;28;20484;-71
2021/08/18 13:09:26;;;;;;;1.03;0.70;;;;;;;;;;5055090;28;20409;-71
2021/08/18 13:11:52;;;;;;;0.60;0.50;;;;;;;;;;5054813;28;20419;-72
2021/08/18 13:14:21;;;;;;;0.73;0.60;;;;;;;;;;5055241;28;20458;-70
2021/08/18 13:16:48;;;;;;;1.10;0.60;;;;;;;;;;5054787;28;20411;-71
2021/08/18 13:19:14;;;;;;;0.70;0.70;;;;;;;;;;5054051;28;20423;-72
2021/08/18 13:21:41;;;;;;;1.37;0.60;;;;;;;;;;5054534;28;20484;-72
2021/08/18 13:24:07;;;;;;;0.60;0.60;;;;;;;;;;5054363;28;20494;-72
2021/08/18 13:26:33;;;;;;;0.57;0.50;;;;;;;;;;5054227;28;20426;-70
2021/08/18 13:28:59;;;;;;;1.80;0.70;;;;;;;;;;5054070;28;20823;-71
2021/08/18 13:31:25;;;;;;;0.63;0.57;;;;;;;;;;5054031;28;20513;-72
2021/08/18 13:33:52;;;;;;;0.60;0.60;;;;;;;;;;5054116;28;20546;-71
2021/08/18 13:36:18;;;;;;;0.70;0.67;;;;;;;;;;5054684;28;20968;-71
2021/08/18 13:38:44;;;;;;;0.77;0.40;;;;;;;;;;5053870;28;20462;-72
2021/08/18 13:41:10;;;;;;;1.00;0.60;;;;;;;;;;5054289;28;20456;-71
2021/08/18 13:43:36;;;;;;;0.60;0.60;;;;;;;;;;5054486;28;20517;-70
2021/08/18 13:46:02;;;;;;;0.47;0.43;;;;;;;;;;5053019;28;20419;-71
2021/08/18 13:48:31;;;;;;;1.20;1.00;;;;;;;;;;5053729;28;20468;-70
2021/08/18 13:54:00;;;;;;;1.07;0.97;;;;;;;;;;5053808;28;20458;-71
2021/08/18 13:56:26;;;;;;;1.30;1.20;;;;;;;;;;5053813;28;20442;-71
2021/08/18 13:58:52;;;;;;;1.37;1.17;;;;;;;;;;5053369;28;20750;-72
2021/08/18 14:01:19;;;;;;;1.50;0.90;;;;;;;;;;5053627;28;20418;-73
2021/08/18 14:09:34;;;;;;;1.93;1.20;;;;;;;;;;5054045;28;20465;-71
2021/08/18 14:12:00;;;;;;;1.00;0.80;;;;;;;;;;5053632;28;20423;-71
2021/08/18 14:14:26;;;;;;;1.30;1.20;;;;;;;;;;5053563;28;20466;-70
2021/08/18 14:16:52;;;;;;;1.17;0.80;;;;;;;;;;5053745;28;20510;-70
2021/08/18 14:19:18;;;;;;;1.13;1.03;;;;;;;;;;5053903;28;20944;-71
2021/08/18 14:21:44;;;;;;;0.90;0.80;;;;;;;;;;5054598;28;20485;-72
2021/08/18 14:24:10;;;;;;;1.10;0.93;;;;;;;;;;5054587;28;20478;-72
2021/08/18 14:26:36;;;;;;;4.20;0.90;;;;;;;;;;5054393;28;20468;-72
2021/08/18 14:29:02;;;;;;;1.13;1.03;;;;;;;;;;5054612;28;20424;-72
2021/08/18 14:31:28;;;;;;;1.17;1.07;;;;;;;;;;5054652;28;20407;-72
2021/08/18 14:33:54;;;;;;;1.00;0.90;;;;;;;;;;5053933;28;20520;-72
2021/08/18 14:39:23;;;;;;;1.00;0.90;;;;;;;;;;5052291;28;20947;-71
2021/08/18 14:41:50;;;;;;;1.67;1.40;;;;;;;;;;5053013;28;20418;-72
2021/08/18 14:44:17;;;;;;;1.40;1.00;;;;;;;;;;5054544;28;20411;-72
2021/08/18 14:46:45;;;;;;;2.00;1.37;;;;;;;;;;5057664;28;20410;-72
2021/08/18 14:49:11;;;;;;;1.90;1.37;;;;;;;;;;5053796;28;20438;-72
2021/08/18 14:51:37;;;;;;;1.40;1.30;;;;;;;;;;5052939;28;20422;-73
2021/08/18 14:54:03;;;;;;;2.30;1.20;;;;;;;;;;5052864;28;20470;-73
2021/08/18 14:56:29;;;;;;;1.20;1.10;;;;;;;;;;5052603;28;20415;-71
2021/08/18 14:58:55;;;;;;;1.43;1.20;;;;;;;;;;5052644;28;20426;-71
2021/08/18 15:01:21;;;;;;;1.17;0.97;;;;;;;;;;5052590;28;20447;-71
2021/08/18 15:03:47;;;;;;;1.30;1.20;;;;;;;;;;5052882;28;20756;-71
2021/08/18 15:09:16;;;;;;;1.30;1.10;;;;;;;;;;5052636;28;20753;-72
2021/08/18 15:11:42;;;;;;;1.60;1.37;;;;;;;;;;5052397;28;20411;-72
2021/08/18 15:14:08;;;;;;;1.40;1.30;;;;;;;;;;5052332;28;20894;-72
2021/08/18 15:16:34;;;;;;;3.67;1.30;;;;;;;;;;5051997;28;20415;-72
2021/08/18 15:19:00;;;;;;;4.40;1.20;;;;;;;;;;5052369;28;20465;-72
2021/08/18 15:24:29;;;;;;;1.73;0.93;;;;;;;;;;5052233;28;20425;-72
2021/08/18 15:26:56;;;;;;;1.57;1.10;;;;;;;;;;5051942;28;20454;-72
2021/08/18 15:29:23;;;;;;;1.43;1.33;;;;;;;;;;5052440;28;20407;-72
2021/08/18 15:31:50;;;;;;;1.27;1.13;;;;;;;;;;5052210;28;20783;-72
2021/08/18 15:34:17;;;;;;;1.20;1.10;;;;;;;;;;5052181;28;20466;-72
2021/08/18 15:39:47;;;;;;;1.00;0.83;;;;;;;;;;5052382;28;20456;-73
2021/08/18 15:42:14;;;;;;;1.27;0.80;;;;;;;;;;5052257;28;20494;-72
2021/08/18 15:44:41;;;;;;;1.10;1.00;;;;;;;;;;5052206;28;20435;-72
2021/08/18 15:47:08;;;;;;;1.97;1.27;;;;;;;;;;5052085;28;20423;-71
2021/08/18 15:49:34;;;;;;;3.47;0.93;;;;;;;;;;5052171;28;20505;-73
2021/08/18 15:52:00;;;;;;;1.40;1.30;;;;;;;;;;5052072;28;20415;-72
2021/08/18 15:54:26;;;;;;;1.60;1.17;;;;;;;;;;5052000;28;20494;-72
2021/08/18 15:56:52;;;;;;;1.40;1.30;;;;;;;;;;5051706;28;20461;-72
2021/08/18 15:59:18;;;;;;;1.53;1.10;;;;;;;;;;5050673;28;20439;-72
2021/08/18 16:01:44;;;;;;;1.37;1.00;;;;;;;;;;5052171;28;20423;-71
2021/08/18 16:04:10;;;;;;;1.63;1.23;;;;;;;;;;5050837;28;20879;-72
2021/08/18 16:09:40;;;;;;;1.37;1.27;;;;;;;;;;5051616;28;20488;-71
2021/08/18 16:12:07;;;;;;;1.37;1.27;;;;;;;;;;5051501;28;20435;-72
2021/08/18 16:14:33;;;;;;;1.37;1.10;;;;;;;;;;5051937;28;20439;-72
2021/08/18 16:16:59;;;;;;;1.33;1.23;;;;;;;;;;5051700;28;20421;-72
2021/08/18 16:19:25;;;;;;;1.30;1.20;;;;;;;;;;5051765;28;20747;-72
2021/08/18 16:24:55;;;;;;;3.00;2.50;;;;;;;;;;5051614;28;20515;-71